Time;durP1;ratioP1;P1;durP2;ratioP2;P2;SDS_P1;SDS_P2;PMS_P1;PMS_P2;Temp;Humidity;BMP_temperature;BMP_pressure;BME280_temperature;BME280_humidity;BME280_pressure;Samples;Min_cycle;Max_cycle;Signal;HPM_P1;HPM_P2
2022/05/01 00:01:39;;;;;;;30.60;20.90;;;11.00;99.90;;;;;;4956964;28;20081;-88
2022/05/01 00:04:05;;;;;;;29.92;20.27;;;11.00;99.90;;;;;;4968630;28;20451;-88
2022/05/01 00:06:33;;;;;;;31.23;20.38;;;11.10;99.90;;;;;;4950197;28;20699;-88
2022/05/01 00:09:00;;;;;;;31.65;20.45;;;11.10;99.90;;;;;;4960825;28;20035;-87
2022/05/01 00:11:30;;;;;;;30.08;19.70;;;11.10;99.90;;;;;;4963657;28;20053;-88
2022/05/01 00:13:57;;;;;;;33.25;20.42;;;11.10;99.90;;;;;;4970373;28;20022;-88
2022/05/01 00:16:23;;;;;;;30.20;19.80;;;11.20;99.90;;;;;;4970590;28;20551;-87
2022/05/01 00:18:49;;;;;;;31.88;21.00;;;11.20;99.90;;;;;;4949863;28;20118;-88
2022/05/01 00:21:14;;;;;;;32.13;20.45;;;11.20;99.90;;;;;;4969448;28;20444;-88
2022/05/01 00:23:40;;;;;;;29.83;20.13;;;11.30;99.90;;;;;;4963700;28;20110;-87
2022/05/01 00:26:07;;;;;;;31.35;20.38;;;11.30;99.90;;;;;;4952119;28;20407;-88
2022/05/01 00:28:34;;;;;;;30.90;20.65;;;11.30;99.90;;;;;;4954896;28;20042;-88
2022/05/01 00:31:02;;;;;;;31.13;19.73;;;11.20;99.90;;;;;;4956486;28;20029;-88
2022/05/01 00:36:27;;;;;;;34.10;21.50;;;11.20;99.90;;;;;;4964096;28;20042;-89
2022/05/01 00:39:03;;;;;;;32.92;21.38;;;11.20;99.90;;;;;;4945706;28;20037;-88
2022/05/01 00:41:33;;;;;;;35.45;22.13;;;11.10;99.90;;;;;;4943279;29;20049;-88
2022/05/01 00:44:16;;;;;;;37.70;22.27;;;11.10;99.90;;;;;;4945933;28;20030;-88
2022/05/01 00:46:47;;;;;;;37.13;22.02;;;11.00;99.90;;;;;;4973358;28;20035;-88
2022/05/01 00:49:15;;;;;;;38.30;22.67;;;11.00;99.90;;;;;;4962464;28;20038;-88
2022/05/01 00:51:50;;;;;;;37.50;22.63;;;11.00;99.90;;;;;;4950692;28;20054;-88
2022/05/01 00:54:17;;;;;;;39.88;23.55;;;11.00;99.90;;;;;;4956348;28;20029;-90
2022/05/01 00:56:46;;;;;;;44.90;24.00;;;11.10;99.90;;;;;;4947842;29;20031;-88
2022/05/01 00:59:12;;;;;;;44.70;25.15;;;11.10;99.90;;;;;;4948200;28;20531;-88
2022/05/01 01:01:42;;;;;;;46.00;25.27;;;11.00;99.90;;;;;;4948070;28;20037;-87
2022/05/01 01:04:09;;;;;;;48.45;25.67;;;11.00;99.90;;;;;;4951998;28;20491;-88
2022/05/01 01:06:36;;;;;;;46.72;25.92;;;10.90;99.90;;;;;;4940010;28;20078;-88
2022/05/01 01:09:02;;;;;;;45.42;24.70;;;10.90;99.90;;;;;;4942455;28;20034;-88
2022/05/01 01:11:28;;;;;;;45.42;24.77;;;10.80;99.90;;;;;;4944884;28;20041;-88
2022/05/01 01:13:54;;;;;;;47.72;24.75;;;10.80;99.90;;;;;;4960566;28;20094;-88
2022/05/01 01:16:20;;;;;;;47.03;24.65;;;10.80;99.90;;;;;;4956436;28;20027;-88
2022/05/01 01:18:47;;;;;;;43.47;24.25;;;10.70;99.90;;;;;;4967620;28;20102;-88
2022/05/01 01:21:12;;;;;;;46.10;23.83;;;10.80;99.90;;;;;;4949202;28;20037;-88
2022/05/01 01:23:40;;;;;;;48.17;25.73;;;10.70;99.90;;;;;;4951472;28;20117;-88
2022/05/01 01:26:07;;;;;;;47.10;24.88;;;10.70;99.90;;;;;;4947907;28;20031;-88
2022/05/01 01:28:37;;;;;;;42.38;23.58;;;10.70;99.90;;;;;;4953188;28;20038;-88
2022/05/01 01:33:53;;;;;;;40.15;24.25;;;10.70;99.90;;;;;;4970053;28;20038;-88
2022/05/01 01:36:22;;;;;;;44.83;24.63;;;10.70;99.90;;;;;;4953308;28;20033;-88
2022/05/01 01:38:47;;;;;;;42.90;25.02;;;10.70;99.90;;;;;;4955817;28;20027;-87
2022/05/01 01:41:18;;;;;;;44.42;23.42;;;10.70;99.90;;;;;;4950941;28;20163;-89
2022/05/01 01:43:44;;;;;;;45.03;25.17;;;10.70;99.90;;;;;;4966496;28;20027;-88
2022/05/01 01:46:10;;;;;;;42.00;23.33;;;10.70;99.90;;;;;;4942462;28;20061;-88
2022/05/01 01:48:36;;;;;;;45.08;24.63;;;10.70;99.90;;;;;;4970115;28;20050;-87
2022/05/01 01:51:03;;;;;;;47.65;24.73;;;10.80;99.90;;;;;;4944433;28;20027;-87
2022/05/01 01:53:31;;;;;;;42.42;25.08;;;10.80;99.90;;;;;;4937901;28;20030;-88
2022/05/01 01:55:57;;;;;;;39.70;22.63;;;10.70;99.90;;;;;;4960963;28;20057;-90
2022/05/01 01:58:24;;;;;;;42.97;23.73;;;10.80;99.90;;;;;;4941295;28;20655;-88
2022/05/01 02:00:51;;;;;;;42.90;22.98;;;10.80;99.90;;;;;;4971848;28;20056;-88
2022/05/01 02:03:17;;;;;;;44.67;24.05;;;10.80;99.90;;;;;;4949351;28;20443;-88
2022/05/01 02:05:43;;;;;;;43.45;22.67;;;10.80;99.90;;;;;;4945342;28;20035;-88
2022/05/01 02:08:09;;;;;;;43.53;23.15;;;10.80;99.90;;;;;;4947328;28;20097;-87
2022/05/01 02:10:35;;;;;;;47.58;24.33;;;10.80;99.90;;;;;;4946059;28;20027;-88
2022/05/01 02:13:03;;;;;;;40.50;23.05;;;10.90;99.90;;;;;;4962390;28;20026;-88
2022/05/01 02:15:32;;;;;;;42.25;22.40;;;10.90;99.90;;;;;;4963630;28;20490;-88
2022/05/01 02:17:59;;;;;;;40.92;23.50;;;10.90;99.90;;;;;;4949629;28;20034;-90
2022/05/01 02:21:33;;;;;;;42.15;23.73;;;10.90;99.90;;;;;;4956744;28;20031;-88
2022/05/01 02:23:19;;;;;;;43.55;23.35;;;10.90;99.90;;;;;;4969210;28;20074;-89
2022/05/01 02:25:45;;;;;;;42.53;23.95;;;10.90;99.90;;;;;;4945750;28;20038;-88
2022/05/01 02:28:13;;;;;;;40.75;22.42;;;10.90;99.90;;;;;;4943699;28;20035;-90
2022/05/01 02:30:39;;;;;;;41.30;22.50;;;10.90;99.90;;;;;;4956256;28;20486;-88
2022/05/01 02:33:08;;;;;;;42.22;23.90;;;11.00;99.90;;;;;;4941131;28;20027;-88
2022/05/01 02:35:35;;;;;;;40.13;22.65;;;11.00;99.90;;;;;;4952869;28;20022;-88
2022/05/01 02:38:02;;;;;;;40.35;22.48;;;10.90;99.90;;;;;;4944996;28;20399;-89
2022/05/01 02:40:29;;;;;;;42.35;23.10;;;10.90;99.90;;;;;;4971760;28;20054;-88
2022/05/01 02:42:58;;;;;;;42.67;23.90;;;10.80;99.90;;;;;;4948726;28;20039;-89
2022/05/01 02:45:24;;;;;;;36.15;20.98;;;10.80;99.90;;;;;;4949029;28;20077;-88
2022/05/01 02:47:50;;;;;;;38.22;21.15;;;10.90;99.90;;;;;;4960796;28;20179;-90
2022/05/01 02:50:15;;;;;;;37.33;20.48;;;10.90;99.90;;;;;;4952088;28;20551;-88
2022/05/01 02:52:41;;;;;;;36.67;20.73;;;10.90;99.90;;;;;;4951672;28;20073;-88
2022/05/01 02:55:07;;;;;;;34.95;19.92;;;10.90;99.90;;;;;;4952647;28;20414;-88
2022/05/01 02:57:33;;;;;;;34.60;19.90;;;10.90;99.90;;;;;;4945834;28;20408;-89
2022/05/01 02:59:59;;;;;;;36.70;21.38;;;10.90;99.90;;;;;;4955816;28;20031;-88
2022/05/01 03:02:24;;;;;;;38.30;21.20;;;10.90;99.90;;;;;;4939106;28;20034;-89
2022/05/01 03:04:50;;;;;;;34.58;20.30;;;10.80;99.90;;;;;;4943227;28;20415;-88
2022/05/01 03:07:16;;;;;;;36.20;20.90;;;10.80;99.90;;;;;;4935523;28;20043;-88
2022/05/01 03:09:42;;;;;;;39.08;21.38;;;10.70;99.90;;;;;;4952095;28;20027;-88
2022/05/01 03:12:08;;;;;;;36.83;20.30;;;10.70;99.90;;;;;;4942976;28;20091;-87
2022/05/01 03:14:34;;;;;;;40.10;21.58;;;10.60;99.90;;;;;;4967434;28;20380;-88
2022/05/01 03:16:59;;;;;;;36.25;20.30;;;10.70;99.90;;;;;;4956986;28;20026;-88
2022/05/01 03:22:13;;;;;;;39.75;20.83;;;10.70;99.90;;;;;;4961828;28;20054;-87
2022/05/01 03:24:42;;;;;;;36.95;20.48;;;10.80;99.90;;;;;;4970730;28;20027;-88
2022/05/01 03:27:10;;;;;;;40.83;22.92;;;10.80;99.90;;;;;;4955306;28;20087;-88
2022/05/01 03:29:36;;;;;;;41.13;22.08;;;10.80;99.90;;;;;;4988055;23;20019;-86
2022/05/01 03:32:07;;;;;;;41.92;23.17;;;10.90;99.90;;;;;;4987307;28;20037;-85
2022/05/01 03:34:33;;;;;;;40.13;23.25;;;10.90;99.90;;;;;;4989883;28;20023;-87
2022/05/01 03:36:58;;;;;;;42.05;22.45;;;10.90;99.90;;;;;;4981572;28;20026;-83
2022/05/01 03:39:24;;;;;;;35.75;20.60;;;10.80;99.90;;;;;;4994857;28;20037;-86
2022/05/01 03:41:49;;;;;;;40.35;21.85;;;10.80;99.90;;;;;;4993866;28;20073;-86
2022/05/01 03:44:15;;;;;;;41.70;22.15;;;10.80;99.90;;;;;;4990026;28;20102;-86
2022/05/01 03:46:41;;;;;;;42.58;22.05;;;10.90;99.90;;;;;;4987112;28;20042;-83
2022/05/01 03:49:06;;;;;;;48.75;23.85;;;10.90;99.90;;;;;;5001027;28;20034;-86
2022/05/01 03:51:33;;;;;;;49.70;25.80;;;10.90;99.90;;;;;;5008443;28;20033;-87
2022/05/01 03:54:02;;;;;;;50.25;26.23;;;10.90;99.90;;;;;;4992425;28;20145;-85
2022/05/01 03:56:31;;;;;;;48.60;24.85;;;10.90;99.90;;;;;;5011238;28;20022;-86
2022/05/01 03:58:57;;;;;;;47.83;26.08;;;10.90;99.90;;;;;;4989080;28;20476;-87
2022/05/01 04:01:24;;;;;;;45.92;25.42;;;11.00;99.90;;;;;;5009670;28;20516;-85
2022/05/01 04:03:50;;;;;;;45.25;24.67;;;11.00;99.90;;;;;;5007648;28;20087;-87
2022/05/01 04:06:16;;;;;;;48.92;26.25;;;11.00;99.90;;;;;;5001588;28;20026;-87
2022/05/01 04:08:42;;;;;;;47.58;24.88;;;11.00;99.90;;;;;;4983152;28;20038;-88
2022/05/01 04:11:08;;;;;;;56.20;25.83;;;11.00;99.90;;;;;;4988028;28;20060;-85
2022/05/01 04:13:35;;;;;;;50.67;24.65;;;11.00;99.90;;;;;;4986654;28;20026;-87
2022/05/01 04:16:02;;;;;;;46.22;25.20;;;11.00;99.90;;;;;;4999482;28;20018;-87
2022/05/01 04:18:27;;;;;;;52.67;26.13;;;11.00;99.90;;;;;;4987255;28;20038;-85
2022/05/01 04:20:53;;;;;;;46.33;25.55;;;11.00;99.90;;;;;;4983318;28;20057;-86
2022/05/01 04:23:20;;;;;;;44.67;24.95;;;11.00;99.90;;;;;;4988997;28;20038;-85
2022/05/01 04:25:47;;;;;;;41.67;23.67;;;11.00;99.90;;;;;;5001338;28;20030;-85
2022/05/01 04:28:13;;;;;;;50.67;25.40;;;11.00;99.90;;;;;;4988906;28;20105;-84
2022/05/01 04:30:39;;;;;;;50.25;23.80;;;11.00;99.90;;;;;;5000737;28;20026;-86
2022/05/01 04:33:13;;;;;;;45.92;24.83;;;11.00;99.90;;;;;;4991044;28;20074;-87
2022/05/01 04:35:44;;;;;;;44.38;24.42;;;11.00;99.90;;;;;;4993715;28;20065;-86
2022/05/01 04:38:15;;;;;;;42.55;22.92;;;11.10;99.90;;;;;;4986415;28;20030;-88
2022/05/01 04:40:43;;;;;;;47.25;24.17;;;11.10;99.90;;;;;;5002725;28;20133;-87
2022/05/01 04:43:13;;;;;;;46.17;25.35;;;11.00;99.90;;;;;;4986468;28;20070;-87
2022/05/01 04:45:43;;;;;;;45.15;24.55;;;11.00;99.90;;;;;;4990245;28;20034;-84
2022/05/01 04:48:10;;;;;;;42.60;24.27;;;11.10;99.90;;;;;;4985239;28;20374;-86
2022/05/01 04:50:37;;;;;;;46.85;24.98;;;11.10;99.90;;;;;;4987531;28;20033;-86
2022/05/01 04:53:06;;;;;;;42.30;24.02;;;11.10;99.90;;;;;;4982185;28;20113;-87
2022/05/01 04:55:33;;;;;;;41.78;24.50;;;11.10;99.90;;;;;;4980676;28;20027;-87
2022/05/01 04:57:59;;;;;;;41.22;24.42;;;11.10;99.90;;;;;;4985955;28;20069;-84
2022/05/01 05:00:26;;;;;;;42.67;23.48;;;11.10;99.90;;;;;;4995575;28;20057;-85
2022/05/01 05:02:53;;;;;;;41.97;24.10;;;11.10;99.90;;;;;;5005470;28;20022;-87
2022/05/01 05:05:20;;;;;;;41.60;23.27;;;11.10;99.90;;;;;;4982744;28;20101;-86
2022/05/01 05:07:46;;;;;;;42.38;23.48;;;11.10;99.90;;;;;;4980579;28;20062;-86
2022/05/01 05:10:14;;;;;;;44.25;23.17;;;11.10;99.90;;;;;;4974282;28;20460;-88
2022/05/01 05:12:42;;;;;;;41.65;22.25;;;11.10;99.90;;;;;;4974954;28;20042;-86
2022/05/01 05:15:10;;;;;;;42.20;22.80;;;11.10;99.90;;;;;;4984563;28;20085;-85
2022/05/01 05:17:37;;;;;;;41.03;23.05;;;11.10;99.90;;;;;;4983812;28;20128;-86
2022/05/01 05:20:04;;;;;;;38.35;22.95;;;11.10;99.90;;;;;;4998601;28;20170;-86
2022/05/01 05:22:30;;;;;;;45.80;23.10;;;11.20;99.90;;;;;;4986023;28;20049;-88
2022/05/01 05:24:56;;;;;;;42.55;22.85;;;11.20;99.90;;;;;;4977130;28;20050;-88
2022/05/01 05:27:25;;;;;;;41.70;22.45;;;11.20;99.90;;;;;;4985325;28;20056;-87
2022/05/01 05:29:56;;;;;;;42.15;22.55;;;11.20;99.90;;;;;;4985215;28;20081;-86
2022/05/01 05:32:23;;;;;;;40.42;22.42;;;11.30;99.90;;;;;;4983080;28;20074;-86
2022/05/01 05:34:49;;;;;;;40.20;21.65;;;11.30;99.90;;;;;;4993676;28;20030;-87
2022/05/01 05:37:15;;;;;;;39.88;21.55;;;11.30;99.90;;;;;;4983917;28;20044;-86
2022/05/01 05:39:41;;;;;;;37.75;22.08;;;11.30;99.90;;;;;;4986839;28;20102;-87
2022/05/01 05:42:07;;;;;;;39.05;21.88;;;11.30;99.90;;;;;;4981392;28;20433;-87
2022/05/01 05:44:33;;;;;;;36.70;20.92;;;11.40;99.90;;;;;;5001425;28;20034;-87
2022/05/01 05:46:58;;;;;;;38.10;21.83;;;11.40;99.90;;;;;;5003744;28;20056;-87
2022/05/01 05:49:24;;;;;;;38.85;22.50;;;11.40;99.90;;;;;;4984512;28;20073;-87
2022/05/01 05:51:49;;;;;;;36.35;21.48;;;11.40;99.90;;;;;;4983416;28;20022;-88
2022/05/01 05:54:15;;;;;;;36.33;20.55;;;11.30;99.90;;;;;;4994830;28;20031;-86
2022/05/01 05:56:40;;;;;;;40.17;23.10;;;11.40;99.90;;;;;;4985187;28;20022;-86
2022/05/01 05:59:07;;;;;;;33.60;21.35;;;11.40;99.90;;;;;;4983919;28;20037;-86
2022/05/01 06:01:32;;;;;;;35.33;20.88;;;11.40;99.90;;;;;;4980962;28;20111;-88
2022/05/01 06:03:58;;;;;;;38.28;21.45;;;11.40;99.90;;;;;;4979973;28;20109;-84
2022/05/01 06:06:24;;;;;;;35.90;21.80;;;11.30;99.90;;;;;;4984711;28;20090;-86
2022/05/01 06:08:49;;;;;;;34.60;20.92;;;11.20;99.90;;;;;;4983580;28;20587;-88
2022/05/01 06:11:15;;;;;;;34.97;21.48;;;11.30;99.90;;;;;;4983415;28;20030;-85
2022/05/01 06:13:40;;;;;;;38.90;21.15;;;11.30;99.90;;;;;;4995133;28;20057;-85
2022/05/01 06:16:06;;;;;;;34.25;20.90;;;11.40;99.90;;;;;;4982119;28;20045;-86
2022/05/01 06:18:32;;;;;;;33.85;20.52;;;11.40;99.90;;;;;;4981471;28;20060;-86
2022/05/01 06:20:57;;;;;;;38.92;20.25;;;11.40;99.90;;;;;;5001625;28;20026;-87
2022/05/01 06:23:24;;;;;;;34.25;20.20;;;11.40;99.90;;;;;;4982383;28;20470;-86
2022/05/01 06:25:50;;;;;;;31.60;20.35;;;11.50;99.90;;;;;;4980327;28;20030;-85
2022/05/01 06:28:16;;;;;;;30.45;18.92;;;11.60;99.90;;;;;;4982659;28;20070;-87
2022/05/01 06:30:43;;;;;;;33.10;18.88;;;11.70;99.90;;;;;;5004237;28;20027;-87
2022/05/01 06:33:14;;;;;;;27.92;18.48;;;11.70;99.90;;;;;;5007641;28;20122;-86
2022/05/01 06:35:40;;;;;;;31.95;19.55;;;11.80;99.90;;;;;;4996071;28;20018;-87
2022/05/01 06:38:07;;;;;;;32.63;18.65;;;11.90;99.90;;;;;;4980463;28;20520;-88
2022/05/01 06:40:33;;;;;;;31.35;19.73;;;11.90;99.90;;;;;;4982157;28;20037;-86
2022/05/01 06:42:59;;;;;;;31.25;18.23;;;12.00;99.90;;;;;;4984343;28;20555;-88
2022/05/01 06:45:25;;;;;;;29.58;19.30;;;12.00;99.90;;;;;;4982266;28;20045;-85
2022/05/01 06:47:50;;;;;;;34.90;18.20;;;12.10;99.90;;;;;;5004614;28;20030;-87
2022/05/01 06:50:16;;;;;;;28.02;17.88;;;12.10;99.90;;;;;;4985277;28;20113;-86
2022/05/01 06:52:42;;;;;;;28.27;18.88;;;12.30;99.90;;;;;;4981423;28;22122;-87
2022/05/01 06:55:09;;;;;;;26.17;17.02;;;12.30;99.90;;;;;;5010577;28;20021;-85
2022/05/01 06:57:35;;;;;;;29.70;17.73;;;12.40;99.90;;;;;;4999483;28;20034;-86
2022/05/01 07:00:01;;;;;;;29.00;18.63;;;12.40;99.90;;;;;;4989538;28;20026;-87
2022/05/01 07:02:26;;;;;;;26.63;17.70;;;12.50;99.90;;;;;;5009991;28;20108;-87
2022/05/01 07:04:52;;;;;;;29.48;18.35;;;12.60;99.90;;;;;;4989397;28;20026;-86
2022/05/01 07:07:18;;;;;;;28.58;17.88;;;12.60;99.90;;;;;;4984573;28;20114;-86
2022/05/01 07:10:06;;;;;;;29.48;18.27;;;12.70;99.90;;;;;;4978917;28;20033;-87
2022/05/01 07:12:32;;;;;;;31.20;18.80;;;12.60;99.90;;;;;;4979180;28;20516;-87
2022/05/01 07:14:59;;;;;;;31.13;18.45;;;12.70;99.90;;;;;;4982599;28;20041;-85
2022/05/01 07:17:28;;;;;;;30.38;18.42;;;12.80;99.90;;;;;;4999602;28;20504;-87
2022/05/01 07:19:55;;;;;;;27.70;17.98;;;12.90;99.90;;;;;;4957777;28;20046;-88
2022/05/01 07:22:21;;;;;;;31.30;18.88;;;12.90;99.90;;;;;;4997940;28;20026;-87
2022/05/01 07:25:26;;;;;;;31.90;19.67;;;13.00;99.90;;;;;;5001223;28;20062;-87
2022/05/01 07:27:55;;;;;;;24.88;17.23;;;13.10;99.90;;;;;;4987708;28;20041;-89
2022/05/01 07:30:22;;;;;;;27.63;18.02;;;13.40;99.90;;;;;;4982195;28;20034;-87
2022/05/01 07:32:51;;;;;;;25.75;16.00;;;13.40;99.90;;;;;;4979334;28;20504;-87
2022/05/01 07:35:16;;;;;;;27.25;17.45;;;13.60;99.90;;;;;;4979608;28;20119;-89
2022/05/01 07:37:42;;;;;;;24.48;16.27;;;13.60;99.90;;;;;;4983010;28;20105;-87
2022/05/01 07:40:09;;;;;;;25.25;16.42;;;13.60;99.90;;;;;;4979871;28;20065;-87
2022/05/01 07:42:34;;;;;;;27.15;16.30;;;13.70;99.90;;;;;;4988016;28;20027;-87
2022/05/01 07:45:00;;;;;;;27.08;15.75;;;13.70;99.90;;;;;;4971540;28;20076;-87
2022/05/01 07:47:26;;;;;;;26.20;16.58;;;13.70;99.90;;;;;;4982441;28;20491;-87
2022/05/01 07:49:54;;;;;;;24.05;16.65;;;13.70;99.90;;;;;;4986638;28;20396;-88
2022/05/01 07:52:20;;;;;;;22.48;15.52;;;13.80;99.90;;;;;;4985959;28;20101;-87
2022/05/01 07:54:45;;;;;;;24.48;15.45;;;13.80;99.90;;;;;;4986824;28;20018;-87
2022/05/01 07:57:11;;;;;;;22.15;15.43;;;13.90;99.90;;;;;;4981710;28;20038;-86
2022/05/01 07:59:37;;;;;;;25.48;15.55;;;13.80;99.90;;;;;;4980541;28;20045;-88
2022/05/01 08:02:03;;;;;;;23.35;15.65;;;13.80;99.90;;;;;;4998763;28;20707;-87
2022/05/01 08:04:28;;;;;;;23.13;15.15;;;13.80;99.90;;;;;;4979290;28;20034;-86
2022/05/01 08:06:56;;;;;;;22.63;15.68;;;13.80;99.90;;;;;;4977103;28;20374;-86
2022/05/01 08:09:21;;;;;;;26.92;16.02;;;13.80;99.90;;;;;;4981007;28;20045;-86
2022/05/01 08:11:47;;;;;;;24.77;15.05;;;13.90;99.90;;;;;;4975204;28;20045;-87
2022/05/01 08:14:14;;;;;;;21.80;15.10;;;13.90;99.90;;;;;;4979128;28;20116;-86
2022/05/01 08:16:40;;;;;;;18.92;14.20;;;13.90;99.90;;;;;;4980205;28;20022;-84
2022/05/01 08:21:50;;;;;;;21.30;14.25;;;13.90;99.90;;;;;;4988608;28;20503;-86
2022/05/01 08:24:16;;;;;;;18.10;13.48;;;13.80;99.90;;;;;;4981139;28;20026;-86
2022/05/01 08:26:46;;;;;;;24.67;14.95;;;13.80;99.90;;;;;;4981839;28;20098;-85
2022/05/01 08:29:14;;;;;;;21.10;14.57;;;13.80;99.90;;;;;;5000115;28;20026;-86
2022/05/01 08:31:40;;;;;;;22.02;15.00;;;13.80;99.90;;;;;;5003224;28;20117;-85
2022/05/01 08:34:07;;;;;;;19.58;14.70;;;13.70;99.90;;;;;;4973565;28;20088;-86
2022/05/01 08:36:33;;;;;;;24.35;14.73;;;13.80;99.90;;;;;;4974165;28;20031;-85
2022/05/01 08:38:59;;;;;;;19.48;14.50;;;13.80;99.90;;;;;;4974902;28;20109;-85
2022/05/01 08:41:29;;;;;;;22.45;15.43;;;13.80;99.90;;;;;;4984937;28;20022;-88
2022/05/01 08:43:56;;;;;;;21.45;14.18;;;13.80;99.90;;;;;;4976457;28;20055;-86
2022/05/01 08:46:28;;;;;;;23.23;14.43;;;13.80;99.90;;;;;;4968713;28;20749;-88
2022/05/01 08:49:00;;;;;;;21.70;15.00;;;13.80;99.90;;;;;;4976663;28;20031;-87
2022/05/01 08:51:29;;;;;;;22.45;15.07;;;13.80;99.90;;;;;;4989103;28;20022;-88
2022/05/01 08:53:56;;;;;;;22.17;14.75;;;13.80;99.90;;;;;;4976070;28;20030;-87
2022/05/01 08:56:22;;;;;;;22.55;15.15;;;13.80;99.90;;;;;;4978033;28;20030;-89
2022/05/01 08:58:49;;;;;;;24.75;16.10;;;13.80;99.90;;;;;;4975184;28;20497;-90
2022/05/01 09:01:16;;;;;;;25.60;15.40;;;13.80;99.90;;;;;;4980074;28;20499;-89
2022/05/01 09:03:44;;;;;;;25.05;16.63;;;13.80;99.90;;;;;;4976970;28;20109;-89
2022/05/01 09:06:10;;;;;;;24.75;15.65;;;13.90;99.90;;;;;;4973732;28;20052;-88
2022/05/01 09:08:40;;;;;;;29.17;15.82;;;13.90;99.90;;;;;;4980509;28;20026;-88
2022/05/01 09:13:51;;;;;;;21.80;14.80;;;13.80;99.90;;;;;;5002270;28;20076;-88
2022/05/01 09:16:17;;;;;;;24.20;15.45;;;13.80;99.90;;;;;;4978871;28;20022;-87
2022/05/01 09:18:44;;;;;;;20.65;15.57;;;13.90;99.90;;;;;;4978139;28;20030;-87
2022/05/01 09:21:10;;;;;;;20.05;13.93;;;13.90;99.90;;;;;;4991296;28;20037;-89
2022/05/01 09:23:44;;;;;;;22.25;14.65;;;13.90;99.90;;;;;;4966827;28;20019;-88
2022/05/01 09:26:14;;;;;;;22.02;14.25;;;13.90;99.90;;;;;;4977427;28;20564;-88
2022/05/01 09:28:54;;;;;;;24.95;14.93;;;13.90;99.90;;;;;;4977859;28;20489;-88
2022/05/01 09:31:43;;;;;;;19.00;13.93;;;13.90;99.90;;;;;;4977210;23;20420;-89
2022/05/01 09:34:43;;;;;;;22.70;14.07;;;14.10;99.90;;;;;;4962388;28;20038;-89
2022/05/01 09:37:19;;;;;;;22.95;13.45;;;14.20;99.90;;;;;;4963883;28;20045;-88
2022/05/01 09:39:51;;;;;;;18.35;13.63;;;14.30;99.90;;;;;;4950123;28;20488;-89
2022/05/01 09:42:19;;;;;;;;;;;14.40;99.90;;;;;;4957115;28;20118;-89
2022/05/01 09:45:07;;;;;;;20.88;13.38;;;14.40;99.90;;;;;;4962166;28;19910;-88
2022/05/01 09:47:42;;;;;;;18.13;12.70;;;14.50;99.90;;;;;;4944666;29;20054;-90
2022/05/01 09:50:09;;;;;;;15.93;11.88;;;14.50;99.90;;;;;;4972294;28;20030;-87
2022/05/01 09:53:01;;;;;;;19.80;13.60;;;14.40;99.90;;;;;;4980652;28;20022;-88
2022/05/01 09:55:28;;;;;;;20.43;12.90;;;14.50;99.90;;;;;;4981035;28;20065;-88
2022/05/01 09:58:06;;;;;;;18.52;13.77;;;14.40;99.90;;;;;;4963206;28;20027;-91
2022/05/01 10:00:44;;;;;;;20.25;13.27;;;14.40;99.90;;;;;;4956816;28;20030;-91
2022/05/01 10:14:08;;;;;;;19.23;13.13;;;14.50;99.70;;;;;;4975598;28;20139;-92
2022/05/01 10:17:10;;;;;;;;;;;;;;;;;;;;;
2022/05/01 10:20:04;;;;;;;19.10;12.43;;;14.70;99.30;;;;;;4924542;29;20580;-93
2022/05/01 10:23:23;;;;;;;17.30;13.45;;;14.80;99.20;;;;;;4902794;29;20043;-92
2022/05/01 10:33:33;;;;;;;15.38;12.13;;;15.30;98.90;;;;;;4926606;28;20040;-94
2022/05/01 10:37:19;;;;;;;16.63;11.77;;;15.60;98.80;;;;;;4917245;28;20056;-92
2022/05/01 10:40:39;;;;;;;;;;;;;;;;;;;;;
2022/05/01 10:44:07;;;;;;;17.92;12.15;;;16.20;97.40;;;;;;4917600;28;20051;-94
2022/05/01 10:50:50;;;;;;;16.58;11.93;;;15.70;97.40;;;;;;4992869;28;20027;-92
2022/05/01 12:24:16;;;;;;;13.75;10.77;;;17.10;93.90;;;;;;5013531;28;20049;-90
2022/05/01 12:27:11;;;;;;;16.30;11.57;;;17.10;93.90;;;;;;4984851;28;20109;-91
2022/05/01 12:29:39;;;;;;;15.77;11.20;;;17.20;93.70;;;;;;4990259;28;20030;-90
2022/05/01 12:32:37;;;;;;;16.48;11.48;;;17.20;93.60;;;;;;4995233;28;20014;-91
2022/05/01 12:35:50;;;;;;;16.05;11.80;;;17.30;93.40;;;;;;4979494;28;20048;-90
2022/05/01 12:39:17;;;;;;;14.63;11.15;;;17.40;93.20;;;;;;5001633;28;20038;-91
2022/05/01 12:45:43;;;;;;;18.80;10.82;;;17.50;92.90;;;;;;5009836;28;20533;-91
2022/05/01 12:48:28;;;;;;;15.63;10.25;;;17.70;93.10;;;;;;4999441;28;20037;-91
2022/05/01 12:58:10;;;;;;;13.95;9.75;;;18.00;92.30;;;;;;4993390;28;20030;-91
2022/05/01 13:04:09;;;;;;;12.55;9.70;;;18.10;91.50;;;;;;4982908;28;20117;-91
2022/05/01 13:07:12;;;;;;;12.55;9.02;;;18.10;91.80;;;;;;5000232;28;20026;-91
2022/05/01 13:10:19;;;;;;;13.48;9.35;;;18.20;92.00;;;;;;4975945;28;20030;-91
2022/05/01 13:13:25;;;;;;;63.38;46.88;;;18.30;92.00;;;;;;4970970;28;20026;-91
2022/05/01 13:16:12;;;;;;;16.42;10.80;;;18.30;91.60;;;;;;4968083;28;20062;-91
2022/05/01 13:22:07;;;;;;;;;;;;;;;;;;;;;
2022/05/01 13:24:46;;;;;;;10.73;8.80;;;18.40;91.10;;;;;;4992503;28;20037;-91
2022/05/01 13:27:39;;;;;;;14.00;8.90;;;18.40;91.10;;;;;;4986992;28;20092;-90
2022/05/01 13:34:03;;;;;;;;;;;;;;;;;;;;;
2022/05/01 13:37:01;;;;;;;14.43;9.45;;;18.40;89.60;;;;;;4980529;28;20038;-90
2022/05/01 13:46:26;;;;;;;12.23;8.88;;;18.20;90.10;;;;;;4997605;28;20057;-91
2022/05/01 13:52:43;;;;;;;12.77;9.25;;;18.20;89.80;;;;;;4916270;29;20085;-91
2022/05/01 13:55:29;;;;;;;13.52;9.32;;;18.10;90.10;;;;;;4904408;29;20032;-89
2022/05/01 13:58:03;;;;;;;11.60;8.32;;;18.20;90.00;;;;;;4930566;28;20026;-91
2022/05/01 14:00:38;;;;;;;10.13;8.23;;;18.20;89.10;;;;;;4990550;28;20033;-91
2022/05/01 14:06:27;;;;;;;;;;;;;;;;;;;;;
2022/05/01 14:12:26;;;;;;;;;;;;;;;;;;;;;
2022/05/01 14:17:56;;;;;;;8.98;7.20;;;18.10;88.20;;;;;;4980053;28;19906;-91
2022/05/01 14:20:59;;;;;;;9.23;7.47;;;18.10;86.70;;;;;;4976955;28;20053;-91
2022/05/01 14:23:54;;;;;;;11.40;8.07;;;18.00;86.90;;;;;;4973581;28;20029;-91
2022/05/01 14:27:20;;;;;;;12.02;7.63;;;18.00;87.00;;;;;;4973270;28;20030;-91
2022/05/01 14:29:57;;;;;;;9.13;7.53;;;18.00;85.90;;;;;;4958268;28;20030;-90
2022/05/01 14:33:15;;;;;;;11.27;7.75;;;17.80;85.30;;;;;;4972222;28;20659;-90
2022/05/01 14:35:50;;;;;;;12.55;8.30;;;17.50;85.60;;;;;;4980306;28;20034;-91
2022/05/01 14:39:15;;;;;;;;;;;;;;;;;;;;;
2022/05/01 14:42:37;;;;;;;11.75;8.20;;;17.30;86.70;;;;;;4991915;28;20038;-90
2022/05/01 14:52:12;;;;;;;12.95;9.25;;;17.10;87.00;;;;;;4966573;28;20466;-90
2022/05/01 14:55:11;;;;;;;11.75;8.35;;;17.10;87.20;;;;;;4964889;28;20029;-91
2022/05/01 15:07:56;;;;;;;11.75;8.35;;;16.80;87.00;;;;;;4948191;28;20046;-91
2022/05/01 15:11:03;;;;;;;10.85;8.95;;;16.80;87.10;;;;;;4976531;28;20124;-92
2022/05/01 15:17:23;;;;;;;12.40;8.85;;;16.60;87.10;;;;;;4931702;29;20063;-91
2022/05/01 15:20:28;;;;;;;12.75;9.23;;;16.60;86.90;;;;;;4910307;29;20040;-91
2022/05/01 15:23:41;;;;;;;10.32;7.28;;;16.50;87.20;;;;;;4910957;29;20036;-92
2022/05/01 15:26:25;;;;;;;;;;;;;;;;;;;;;
2022/05/01 15:35:47;;;;;;;11.27;8.18;;;16.50;87.30;;;;;;4969915;28;20030;-91
2022/05/01 15:38:36;;;;;;;;;;;;;;;;;;;;;
2022/05/01 15:45:02;;;;;;;11.10;8.32;;;16.60;87.50;;;;;;5009450;28;20094;-91
2022/05/01 15:47:35;;;;;;;10.70;8.70;;;16.60;87.60;;;;;;4948543;28;20034;-91
2022/05/01 15:53:41;;;;;;;12.57;8.18;;;16.70;87.20;;;;;;5004025;28;20037;-91
2022/05/01 15:56:56;;;;;;;11.80;8.43;;;16.70;87.00;;;;;;4996114;28;20034;-92
2022/05/01 16:00:12;;;;;;;8.57;7.68;;;16.80;87.10;;;;;;4925653;29;20036;-91
2022/05/01 16:05:51;;;;;;;10.80;8.73;;;16.90;87.30;;;;;;5012130;23;20055;-92
2022/05/01 16:09:02;;;;;;;9.43;8.27;;;16.80;87.10;;;;;;4960054;28;20499;-91
2022/05/01 16:12:05;;;;;;;;;;;;;;;;;;;;;
2022/05/01 16:19:13;;;;;;;;;;;;;;;;;;;;;
2022/05/01 16:29:12;;;;;;;11.52;9.23;;;17.00;90.10;;;;;;4921138;29;20079;-91
2022/05/01 16:45:21;;;;;;;8.75;6.68;;;16.60;89.40;;;;;;4880660;29;20040;-91
2022/05/01 16:51:11;;;;;;;9.25;6.45;;;16.50;89.30;;;;;;4976551;28;19910;-92
2022/05/01 16:53:47;;;;;;;8.60;6.85;;;16.30;89.00;;;;;;4940287;29;20057;-92
2022/05/01 16:57:09;;;;;;;10.45;7.53;;;16.30;89.30;;;;;;4958818;28;20034;-91
2022/05/01 17:00:14;;;;;;;;;;;;;;;;;;;;;
2022/05/01 17:10:57;;;;;;;11.30;8.02;;;16.00;90.00;;;;;;4931773;28;20023;-91
2022/05/01 17:14:11;;;;;;;;;;;;;;;;;;;;;
2022/05/01 17:18:00;;;;;;;8.40;6.70;;;16.10;90.10;;;;;;4916784;29;20487;-92
2022/05/01 17:20:52;;;;;;;9.00;7.25;;;16.10;90.20;;;;;;4911195;29;20042;-92
2022/05/01 17:27:41;;;;;;;;;;;;;;;;;;;;;